Time;durP1;ratioP1;P1;durP2;ratioP2;P2;SDS_P1;SDS_P2;PMS_P1;PMS_P2;Temp;Humidity;BMP_temperature;BMP_pressure;BME280_temperature;BME280_humidity;BME280_pressure;Samples;Min_cycle;Max_cycle;Signal;HPM_P1;HPM_P2
2021/03/16 06:33:58;;;;;;;17.30;8.70;;;3.20;94.70;;;;;;5013569;28;20210;-84
2021/03/16 06:43:38;;;;;;;21.50;9.57;;;3.40;94.70;;;;;;5012785;28;20483;-87
2021/03/16 06:46:47;;;;;;;9.80;5.80;;;3.40;94.70;;;;;;5014728;28;20659;-86
2021/03/16 06:52:48;;;;;;;20.43;7.47;;;3.50;94.70;;;;;;5016781;28;20205;-87
2021/03/16 06:58:36;;;;;;;16.40;8.27;;;3.40;94.30;;;;;;5013355;28;20555;-88
2021/03/16 07:01:49;;;;;;;19.27;8.67;;;3.20;95.20;;;;;;5014937;28;20274;-86
2021/03/16 07:04:18;;;;;;;9.73;6.03;;;3.10;95.70;;;;;;5000646;28;20292;-92
2021/03/16 07:06:45;;;;;;;12.20;7.47;;;3.00;95.70;;;;;;5006697;28;20205;-90
2021/03/16 07:09:13;;;;;;;15.57;7.67;;;2.90;96.50;;;;;;5000243;28;20219;-86
2021/03/16 07:11:45;;;;;;;9.77;5.27;;;2.80;96.50;;;;;;5000628;28;20203;-85
2021/03/16 07:14:13;;;;;;;8.73;5.60;;;2.60;96.50;;;;;;4996717;28;20233;-86
2021/03/16 07:16:41;;;;;;;11.73;5.03;;;2.60;97.40;;;;;;4994787;28;20788;-92
2021/03/16 07:19:08;;;;;;;10.27;5.63;;;2.50;97.30;;;;;;5000513;28;20226;-86
2021/03/16 07:21:38;;;;;;;10.27;5.13;;;2.50;97.70;;;;;;4994700;28;20207;-86
2021/03/16 07:24:07;;;;;;;15.67;7.73;;;2.60;97.40;;;;;;5002100;28;20255;-86
2021/03/16 07:26:36;;;;;;;8.60;5.40;;;2.70;97.70;;;;;;4962418;28;20214;-88
2021/03/16 07:29:04;;;;;;;8.33;5.23;;;3.00;97.50;;;;;;5009454;28;20231;-89
2021/03/16 07:31:32;;;;;;;8.73;4.90;;;3.00;97.20;;;;;;4989231;28;20287;-84
2021/03/16 07:34:28;;;;;;;10.93;6.23;;;3.00;96.70;;;;;;5008952;28;20233;-85
2021/03/16 07:36:56;;;;;;;6.00;4.40;;;3.10;96.60;;;;;;5008317;28;20299;-85
2021/03/16 07:39:25;;;;;;;6.40;4.40;;;3.10;96.00;;;;;;5010214;28;20342;-88
2021/03/16 07:41:53;;;;;;;7.53;5.03;;;3.10;96.20;;;;;;4996579;28;20308;-84
2021/03/16 07:47:48;;;;;;;9.63;4.27;;;3.20;95.90;;;;;;5014051;28;20234;-82
2021/03/16 07:50:15;;;;;;;6.70;4.40;;;3.20;96.00;;;;;;5007101;28;20203;-87
2021/03/16 07:52:46;;;;;;;8.77;4.70;;;3.20;95.80;;;;;;5004256;28;20231;-84
2021/03/16 07:55:23;;;;;;;5.70;3.93;;;3.20;95.60;;;;;;5003398;28;20277;-85
2021/03/16 07:57:51;;;;;;;6.13;4.60;;;3.10;95.70;;;;;;5007133;28;20298;-88
2021/03/16 08:00:28;;;;;;;4.60;3.93;;;3.10;96.30;;;;;;5008131;28;20202;-84
2021/03/16 08:03:00;;;;;;;7.63;4.33;;;3.00;95.90;;;;;;5002801;28;20226;-85
2021/03/16 08:05:44;;;;;;;9.30;4.83;;;3.10;96.00;;;;;;5003963;28;20191;-90
2021/03/16 08:08:16;;;;;;;7.00;4.10;;;3.10;96.20;;;;;;4998942;28;20261;-85
2021/03/16 08:10:43;;;;;;;6.83;4.50;;;3.20;95.70;;;;;;5019306;28;20316;-85
2021/03/16 08:13:21;;;;;;;8.97;4.30;;;3.30;95.30;;;;;;4998524;28;20218;-83
2021/03/16 08:15:49;;;;;;;15.20;8.03;;;3.30;95.10;;;;;;5002598;28;20226;-88
2021/03/16 08:18:30;;;;;;;6.80;4.27;;;3.50;95.70;;;;;;5002280;28;20222;-84
2021/03/16 08:21:07;;;;;;;8.00;4.53;;;3.70;94.80;;;;;;5010172;28;20190;-83
2021/03/16 08:27:07;;;;;;;8.10;4.73;;;4.00;93.90;;;;;;5015171;28;20189;-85
2021/03/16 08:29:42;;;;;;;7.77;4.40;;;4.00;93.00;;;;;;5005285;28;20206;-86
2021/03/16 08:32:14;;;;;;;7.60;3.77;;;4.00;93.30;;;;;;5014426;28;20234;-85
2021/03/16 08:34:58;;;;;;;10.83;4.73;;;4.00;92.60;;;;;;5014187;28;20535;-83
2021/03/16 08:37:52;;;;;;;12.07;4.37;;;4.10;92.80;;;;;;5014729;28;20223;-84
2021/03/16 08:40:27;;;;;;;8.67;4.33;;;4.20;92.20;;;;;;5016858;28;20203;-84
2021/03/16 08:42:53;;;;;;;7.43;4.50;;;4.10;92.60;;;;;;4984789;28;20233;-88
2021/03/16 08:45:29;;;;;;;8.57;4.60;;;4.10;91.80;;;;;;4999936;28;20570;-87
2021/03/16 08:47:55;;;;;;;13.13;4.70;;;4.20;92.10;;;;;;4998384;28;20230;-86
2021/03/16 08:50:31;;;;;;;9.57;4.70;;;4.40;92.20;;;;;;5013873;28;21026;-85
2021/03/16 08:53:06;;;;;;;7.73;3.70;;;4.60;91.10;;;;;;5017972;28;20615;-85
2021/03/16 08:59:03;;;;;;;8.43;3.83;;;4.50;90.70;;;;;;4994671;28;20215;-85
2021/03/16 09:01:50;;;;;;;12.90;4.17;;;4.70;90.30;;;;;;4995624;28;20198;-86
2021/03/16 09:07:42;;;;;;;6.40;3.90;;;4.80;90.70;;;;;;5011417;28;20249;-87
2021/03/16 09:10:11;;;;;;;9.47;4.13;;;4.90;90.10;;;;;;5008388;28;20191;-87
2021/03/16 09:12:41;;;;;;;6.60;4.13;;;5.00;89.00;;;;;;5005063;28;20231;-86
2021/03/16 09:15:09;;;;;;;7.87;4.17;;;5.00;89.30;;;;;;5000789;28;20223;-83
2021/03/16 09:17:39;;;;;;;11.03;5.13;;;4.90;88.90;;;;;;5005256;28;20227;-88
2021/03/16 09:20:36;;;;;;;6.67;3.60;;;5.10;89.10;;;;;;5012301;28;20203;-86
2021/03/16 09:23:17;;;;;;;7.90;3.77;;;5.10;89.10;;;;;;4994231;28;20243;-86
2021/03/16 09:26:26;;;;;;;7.93;3.10;;;5.10;89.00;;;;;;5001838;28;20624;-84
2021/03/16 09:29:38;;;;;;;8.83;3.50;;;4.80;86.30;;;;;;4994654;28;20289;-84
2021/03/16 09:32:07;;;;;;;8.93;3.33;;;4.90;87.90;;;;;;5004021;28;20579;-84
2021/03/16 09:34:40;;;;;;;7.40;3.30;;;4.90;88.20;;;;;;5009775;28;20550;-86
2021/03/16 09:37:08;;;;;;;4.73;3.10;;;5.00;87.70;;;;;;5004155;28;20224;-86
2021/03/16 09:39:35;;;;;;;5.60;3.47;;;5.10;87.30;;;;;;5005728;28;20643;-86
2021/03/16 09:42:03;;;;;;;6.93;3.67;;;5.10;87.40;;;;;;4997315;28;20204;-85
2021/03/16 09:44:33;;;;;;;8.47;2.93;;;5.40;86.30;;;;;;5005668;28;20204;-88
2021/03/16 09:47:00;;;;;;;6.43;4.00;;;5.80;84.70;;;;;;4996420;28;20514;-86
2021/03/16 09:49:34;;;;;;;7.70;3.30;;;5.70;82.90;;;;;;5004223;28;20191;-89
2021/03/16 09:52:08;;;;;;;9.67;3.90;;;5.30;85.10;;;;;;5002792;28;20208;-85
2021/03/16 09:54:39;;;;;;;9.57;3.70;;;5.40;85.20;;;;;;5004265;28;20290;-85
2021/03/16 09:57:08;;;;;;;8.00;3.97;;;5.40;85.20;;;;;;5000161;28;20216;-85
2021/03/16 09:59:35;;;;;;;8.20;3.93;;;5.50;84.40;;;;;;5008696;28;20299;-87
2021/03/16 10:02:03;;;;;;;9.73;4.30;;;5.70;84.20;;;;;;5004075;28;20299;-85
2021/03/16 10:04:30;;;;;;;7.43;4.03;;;5.70;82.00;;;;;;5005954;28;20203;-89
2021/03/16 10:06:57;;;;;;;8.97;4.00;;;5.80;82.10;;;;;;5005499;28;20229;-86
2021/03/16 10:09:26;;;;;;;4.07;3.40;;;5.70;82.70;;;;;;5007604;28;20245;-85
2021/03/16 10:11:53;;;;;;;10.60;4.30;;;5.60;82.60;;;;;;4985354;28;21736;-85
2021/03/16 10:14:26;;;;;;;6.60;3.50;;;5.40;84.70;;;;;;4997448;28;20655;-85
2021/03/16 10:16:56;;;;;;;5.30;3.40;;;5.20;84.50;;;;;;5006536;28;20224;-88
2021/03/16 10:19:24;;;;;;;9.27;3.47;;;5.10;84.00;;;;;;5007092;28;20282;-88
2021/03/16 10:21:50;;;;;;;5.90;3.17;;;4.80;86.00;;;;;;5009541;28;20203;-84
2021/03/16 10:24:25;;;;;;;8.80;3.47;;;4.60;85.30;;;;;;5010371;28;20202;-90
2021/03/16 10:26:56;;;;;;;7.63;3.60;;;4.60;85.90;;;;;;5009739;28;20225;-87
2021/03/16 10:29:22;;;;;;;9.13;3.43;;;4.60;88.50;;;;;;5005846;28;20249;-86
2021/03/16 10:31:49;;;;;;;5.40;3.33;;;4.60;87.50;;;;;;4987671;28;20223;-87
2021/03/16 10:34:43;;;;;;;8.73;3.33;;;4.70;86.60;;;;;;4990243;28;20728;-84
2021/03/16 10:37:17;;;;;;;7.23;3.20;;;5.00;84.90;;;;;;4995382;28;20222;-86
2021/03/16 10:40:09;;;;;;;6.20;2.63;;;5.10;81.50;;;;;;5016176;28;20194;-84
2021/03/16 10:49:19;;;;;;;6.83;2.57;;;5.90;79.20;;;;;;4994277;28;20638;-86
2021/03/16 11:02:28;;;;;;;5.33;2.40;;;7.50;69.80;;;;;;5018367;28;20166;-87
2021/03/16 11:04:58;;;;;;;4.53;2.60;;;7.20;68.30;;;;;;5020038;28;20191;-87
2021/03/16 11:11:33;;;;;;;4.43;2.10;;;6.90;70.20;;;;;;5013068;28;20607;-89
2021/03/16 11:13:59;;;;;;;4.67;2.10;;;6.50;66.60;;;;;;4997565;28;20326;-88
2021/03/16 11:25:45;;;;;;;8.07;3.37;;;5.90;70.70;;;;;;5994429;22;20160;-87
2021/03/16 11:28:12;;;;;;;4.77;2.70;;;6.00;70.70;;;;;;4949020;28;20252;-87
2021/03/16 11:30:41;;;;;;;6.63;2.20;;;6.20;71.00;;;;;;4951417;28;20217;-90
2021/03/16 11:33:07;;;;;;;9.37;2.10;;;6.20;66.10;;;;;;4942159;28;20312;-88
2021/03/16 11:35:50;;;;;;;7.10;2.67;;;6.30;60.80;;;;;;4948469;28;20260;-89
2021/03/16 11:38:17;;;;;;;8.80;3.17;;;6.10;60.50;;;;;;4946036;28;20248;-85
2021/03/16 11:40:43;;;;;;;9.70;4.47;;;6.20;62.50;;;;;;4945367;28;20201;-88
2021/03/16 11:43:14;;;;;;;7.83;3.53;;;6.40;71.20;;;;;;4949697;28;20229;-86
2021/03/16 11:45:42;;;;;;;5.50;2.23;;;6.70;61.30;;;;;;4950149;28;20227;-89
2021/03/16 11:48:09;;;;;;;5.83;2.27;;;6.80;59.20;;;;;;4948890;28;20225;-86
2021/03/16 11:50:36;;;;;;;4.20;2.30;;;6.90;60.60;;;;;;4944419;28;20210;-86
2021/03/16 11:53:02;;;;;;;6.47;2.70;;;6.80;58.30;;;;;;4947015;28;20227;-89
2021/03/16 11:55:29;;;;;;;5.10;2.30;;;6.60;60.40;;;;;;4947839;28;20233;-91
2021/03/16 11:57:55;;;;;;;5.07;2.43;;;6.80;61.10;;;;;;4949254;28;20221;-88
2021/03/16 12:00:23;;;;;;;5.50;2.10;;;6.90;58.30;;;;;;4949514;28;20608;-88
2021/03/16 12:03:14;;;;;;;4.33;1.80;;;7.00;57.10;;;;;;4954394;28;20745;-88
2021/03/16 12:05:40;;;;;;;5.57;2.00;;;7.00;55.30;;;;;;4949085;28;20216;-88
2021/03/16 12:08:07;;;;;;;7.53;2.37;;;6.90;55.10;;;;;;4949455;28;20228;-88
2021/03/16 12:10:34;;;;;;;7.00;2.30;;;7.10;53.50;;;;;;4950838;28;20241;-89
2021/03/16 12:13:00;;;;;;;6.77;2.00;;;7.00;53.20;;;;;;4946765;28;20233;-88
2021/03/16 12:15:34;;;;;;;5.03;2.20;;;7.00;54.10;;;;;;4949917;28;20601;-89
2021/03/16 12:18:01;;;;;;;5.53;2.10;;;7.00;56.20;;;;;;4949221;28;20233;-88
2021/03/16 12:20:28;;;;;;;6.13;2.23;;;6.80;55.80;;;;;;4947997;28;20201;-86
2021/03/16 12:22:55;;;;;;;8.13;2.20;;;6.70;58.70;;;;;;4951719;28;20221;-89
2021/03/16 12:25:22;;;;;;;5.70;2.40;;;6.50;61.50;;;;;;4954067;28;20264;-88
2021/03/16 12:31:11;;;;;;;3.90;2.03;;;6.40;59.50;;;;;;4951020;28;20678;-86
2021/03/16 12:33:38;;;;;;;5.43;2.20;;;6.10;60.30;;;;;;4959129;28;20260;-88
2021/03/16 12:36:06;;;;;;;4.77;2.47;;;6.10;61.00;;;;;;4945993;28;20205;-87
2021/03/16 12:38:33;;;;;;;7.47;2.60;;;6.10;60.70;;;;;;4955758;28;20279;-85
2021/03/16 12:41:00;;;;;;;6.00;2.00;;;6.10;59.20;;;;;;4962909;28;20217;-85
2021/03/16 12:43:27;;;;;;;6.33;3.13;;;6.10;58.50;;;;;;4946986;28;20308;-86
2021/03/16 12:45:53;;;;;;;5.17;2.50;;;6.40;61.50;;;;;;4962650;28;20236;-85
2021/03/16 12:48:20;;;;;;;6.87;2.80;;;6.50;59.90;;;;;;4941664;28;20225;-86
2021/03/16 12:50:47;;;;;;;6.30;3.00;;;6.50;58.80;;;;;;4943229;28;20206;-88
2021/03/16 12:53:13;;;;;;;6.30;3.00;;;6.50;62.40;;;;;;4946413;28;20903;-88
2021/03/16 12:55:42;;;;;;;5.47;3.03;;;6.70;61.40;;;;;;4938996;28;20370;-91
2021/03/16 12:58:08;;;;;;;6.87;2.60;;;6.80;61.50;;;;;;4940957;28;20231;-88
2021/03/16 13:00:35;;;;;;;5.30;3.00;;;6.90;60.60;;;;;;4944204;28;20205;-88
2021/03/16 13:03:04;;;;;;;6.57;2.60;;;6.60;60.80;;;;;;4951574;28;20316;-86
2021/03/16 13:05:33;;;;;;;5.57;2.40;;;6.30;60.40;;;;;;4945583;28;20201;-86
2021/03/16 13:08:08;;;;;;;4.93;2.37;;;6.10;63.00;;;;;;4952753;28;20222;-89
2021/03/16 13:10:41;;;;;;;6.83;2.30;;;6.10;62.90;;;;;;4946496;28;20595;-86
2021/03/16 13:13:08;;;;;;;4.07;2.30;;;6.10;62.90;;;;;;4941054;28;20226;-88
2021/03/16 13:15:46;;;;;;;8.43;2.90;;;6.00;62.90;;;;;;4944044;28;20231;-90
2021/03/16 13:18:13;;;;;;;5.80;2.80;;;5.70;63.50;;;;;;4940083;28;20707;-86
2021/03/16 13:20:41;;;;;;;7.60;2.50;;;5.40;65.80;;;;;;4943006;28;20554;-90
2021/03/16 13:23:07;;;;;;;5.23;2.40;;;5.30;69.80;;;;;;4942234;28;20226;-85
2021/03/16 13:25:34;;;;;;;7.93;2.80;;;5.30;66.30;;;;;;4954957;28;20209;-88
2021/03/16 13:28:02;;;;;;;4.67;2.00;;;5.50;66.40;;;;;;4947543;28;20237;-87
2021/03/16 13:30:29;;;;;;;7.57;2.43;;;5.50;61.00;;;;;;4949862;28;20316;-90
2021/03/16 13:32:57;;;;;;;6.93;2.43;;;5.50;63.20;;;;;;4947248;28;20726;-85
2021/03/16 13:35:26;;;;;;;8.93;2.43;;;5.70;64.30;;;;;;4940778;28;20198;-85
2021/03/16 13:37:57;;;;;;;6.70;2.30;;;5.80;64.20;;;;;;4956164;28;20228;-86
2021/03/16 13:40:24;;;;;;;9.03;2.40;;;6.10;62.30;;;;;;4962533;28;20206;-88
2021/03/16 13:42:51;;;;;;;8.23;2.40;;;6.40;61.90;;;;;;4948946;28;20239;-85
2021/03/16 13:45:34;;;;;;;5.33;2.30;;;6.50;60.40;;;;;;4949364;28;20220;-86
2021/03/16 13:48:11;;;;;;;6.87;2.37;;;6.80;58.20;;;;;;4949985;28;20233;-87
2021/03/16 13:50:38;;;;;;;5.20;2.40;;;6.80;58.40;;;;;;4941935;28;20210;-87
2021/03/16 13:53:07;;;;;;;4.93;1.90;;;6.80;55.90;;;;;;4951757;28;20225;-85
2021/03/16 13:55:34;;;;;;;7.73;2.47;;;6.60;56.00;;;;;;4942413;28;20680;-84
2021/03/16 13:58:01;;;;;;;4.53;2.27;;;6.40;55.90;;;;;;4947913;28;20582;-86
2021/03/16 14:00:27;;;;;;;5.27;2.20;;;6.30;57.40;;;;;;4951202;28;20201;-83
2021/03/16 14:03:00;;;;;;;6.33;1.97;;;6.30;57.00;;;;;;4949331;28;20225;-86
2021/03/16 14:05:26;;;;;;;6.73;2.20;;;6.40;56.50;;;;;;4970901;28;20202;-88
2021/03/16 14:07:52;;;;;;;5.83;2.53;;;6.50;57.20;;;;;;4965824;28;20264;-89
2021/03/16 14:10:20;;;;;;;9.30;2.30;;;6.70;56.90;;;;;;4947665;28;20610;-86
2021/03/16 14:12:47;;;;;;;7.17;2.40;;;6.80;55.20;;;;;;4951237;28;20222;-88
2021/03/16 14:15:15;;;;;;;5.33;2.33;;;6.80;55.70;;;;;;4948715;28;20228;-88
2021/03/16 14:17:46;;;;;;;5.03;2.00;;;6.70;55.30;;;;;;4960284;28;20672;-86
2021/03/16 14:20:14;;;;;;;5.23;2.20;;;6.80;55.20;;;;;;4953525;28;20205;-89
2021/03/16 14:22:44;;;;;;;5.40;2.47;;;6.70;56.30;;;;;;4958332;28;20266;-89
2021/03/16 14:25:12;;;;;;;5.43;2.70;;;6.60;56.30;;;;;;4947310;28;20410;-87
2021/03/16 14:27:40;;;;;;;8.93;3.37;;;6.60;55.80;;;;;;4955135;28;20730;-89
2021/03/16 14:30:15;;;;;;;7.40;2.70;;;6.50;55.20;;;;;;4947195;28;20210;-85
2021/03/16 14:32:42;;;;;;;5.50;2.77;;;6.30;56.40;;;;;;4942362;28;20773;-86
2021/03/16 14:35:10;;;;;;;4.90;2.73;;;6.20;57.30;;;;;;4938554;28;20643;-85
2021/03/16 14:37:39;;;;;;;9.10;3.20;;;6.30;58.90;;;;;;4945852;28;20299;-86
2021/03/16 14:40:06;;;;;;;6.83;3.03;;;6.30;57.20;;;;;;4952560;28;20205;-87
2021/03/16 14:42:54;;;;;;;8.23;2.20;;;6.50;56.30;;;;;;4948058;28;20275;-85
2021/03/16 14:45:20;;;;;;;5.90;1.90;;;6.50;56.70;;;;;;5008145;28;20252;-88
2021/03/16 14:51:10;;;;;;;8.13;2.03;;;6.40;55.40;;;;;;5056503;28;20241;-85
2021/03/16 14:53:38;;;;;;;7.30;2.37;;;6.50;56.10;;;;;;5049568;28;20653;-86
2021/03/16 14:56:05;;;;;;;6.10;2.10;;;6.50;54.70;;;;;;4954206;28;20214;-88
2021/03/16 14:58:32;;;;;;;9.10;2.37;;;6.40;55.20;;;;;;4957700;28;20201;-86
2021/03/16 15:01:06;;;;;;;7.07;2.43;;;6.40;54.60;;;;;;4974403;28;20716;-85
2021/03/16 15:04:16;;;;;;;9.03;2.10;;;6.30;55.10;;;;;;4969934;28;20236;-86
2021/03/16 15:06:43;;;;;;;4.60;2.30;;;6.10;56.20;;;;;;4973342;28;20211;-84
2021/03/16 15:09:09;;;;;;;4.83;2.10;;;6.10;57.60;;;;;;4955048;28;20292;-84
2021/03/16 15:11:39;;;;;;;4.07;2.10;;;6.20;57.00;;;;;;4954459;28;20208;-84
2021/03/16 15:14:55;;;;;;;3.80;2.00;;;6.20;57.20;;;;;;5015674;28;20221;-84
2021/03/16 15:17:22;;;;;;;7.20;2.30;;;6.10;57.30;;;;;;5055368;28;20253;-87
2021/03/16 15:19:49;;;;;;;4.80;2.00;;;6.10;58.70;;;;;;4945712;29;20202;-84
2021/03/16 15:27:18;;;;;;;3.60;2.20;;;5.10;75.60;;;;;;5030229;28;21216;-86
2021/03/16 15:33:11;;;;;;;3.60;1.90;;;4.20;86.90;;;;;;5034307;28;20214;-85
2021/03/16 15:36:38;;;;;;;3.53;2.17;;;3.70;90.00;;;;;;5037496;28;20218;-82
2021/03/16 15:39:07;;;;;;;1.90;1.57;;;3.50;90.90;;;;;;5036893;28;20597;-83
2021/03/16 15:44:53;;;;;;;3.10;2.00;;;3.80;89.40;;;;;;5019037;28;21645;-85
2021/03/16 15:47:25;;;;;;;6.17;2.17;;;4.00;88.30;;;;;;5018293;28;20237;-85
2021/03/16 15:50:03;;;;;;;8.17;2.50;;;4.10;87.60;;;;;;5030626;28;20210;-86
2021/03/16 15:52:43;;;;;;;3.23;1.90;;;4.40;87.20;;;;;;5026328;28;20234;-86
2021/03/16 15:55:18;;;;;;;8.43;2.50;;;4.40;85.90;;;;;;5014730;28;20203;-85
2021/03/16 15:57:54;;;;;;;10.70;2.30;;;4.50;83.50;;;;;;5020527;28;20229;-86
2021/03/16 16:03:45;;;;;;;5.20;2.70;;;4.60;81.60;;;;;;5016396;28;20218;-86
2021/03/16 16:06:28;;;;;;;9.47;2.70;;;4.50;80.60;;;;;;5023478;28;20201;-85
2021/03/16 16:09:02;;;;;;;6.33;2.83;;;4.50;81.00;;;;;;5029185;28;20301;-86
2021/03/16 16:11:30;;;;;;;5.77;2.53;;;4.60;81.40;;;;;;5027822;28;20207;-87
2021/03/16 16:13:56;;;;;;;7.97;3.37;;;4.70;81.80;;;;;;5022538;28;20236;-84
2021/03/16 16:16:24;;;;;;;8.83;2.80;;;4.70;81.50;;;;;;5028974;28;20225;-83
2021/03/16 16:19:07;;;;;;;5.50;2.63;;;4.70;80.30;;;;;;5027778;28;20723;-83
2021/03/16 16:21:33;;;;;;;7.43;2.97;;;4.80;81.60;;;;;;5022032;28;20201;-89
2021/03/16 16:24:00;;;;;;;5.77;3.80;;;4.80;81.20;;;;;;5017606;28;20602;-86
2021/03/16 16:26:26;;;;;;;7.70;3.37;;;4.80;81.90;;;;;;5020172;28;20473;-83
2021/03/16 16:28:56;;;;;;;9.13;3.13;;;4.70;80.70;;;;;;5018011;28;20226;-85
2021/03/16 16:31:22;;;;;;;7.77;3.27;;;4.80;81.60;;;;;;4996476;28;20542;-89
2021/03/16 16:33:49;;;;;;;9.70;3.60;;;4.80;80.80;;;;;;5010362;28;20276;-86
2021/03/16 16:36:15;;;;;;;8.57;3.60;;;4.90;80.50;;;;;;5019328;28;20222;-84
2021/03/16 16:38:41;;;;;;;7.47;3.10;;;5.00;79.30;;;;;;5013141;28;20317;-86
2021/03/16 16:43:44;;;;;;;7.37;3.50;;;5.10;80.10;;;;;;5418967;22;20233;-82
2021/03/16 16:46:11;;;;;;;7.93;3.33;;;5.00;80.20;;;;;;4938169;28;20554;-84
2021/03/16 16:48:38;;;;;;;6.03;3.13;;;4.90;80.60;;;;;;4941361;28;20396;-82
2021/03/16 16:51:04;;;;;;;5.87;3.13;;;4.80;78.60;;;;;;4944139;28;20259;-81
2021/03/16 16:53:34;;;;;;;6.20;3.20;;;4.70;79.30;;;;;;4956420;28;20616;-81
2021/03/16 16:58:38;;;;;;;6.83;3.07;;;4.70;78.60;;;;;;5683104;22;20241;-86
2021/03/16 17:01:04;;;;;;;5.43;2.97;;;4.70;77.70;;;;;;5028037;28;20252;-84
2021/03/16 17:03:31;;;;;;;6.77;3.20;;;4.70;78.20;;;;;;5015635;28;20223;-85
2021/03/16 17:05:58;;;;;;;8.07;3.57;;;4.80;78.00;;;;;;5009520;28;20226;-85
2021/03/16 17:08:25;;;;;;;4.07;3.10;;;4.80;79.50;;;;;;5014169;28;20234;-84
2021/03/16 17:10:51;;;;;;;5.53;3.97;;;4.70;82.50;;;;;;5022389;28;20281;-85
2021/03/16 17:13:18;;;;;;;10.90;4.13;;;4.60;83.50;;;;;;5018796;28;20585;-88
2021/03/16 17:15:47;;;;;;;9.40;3.83;;;4.40;85.70;;;;;;5026995;28;20207;-89
2021/03/16 17:18:17;;;;;;;7.80;3.90;;;4.20;88.00;;;;;;5025746;28;20689;-85
2021/03/16 17:20:44;;;;;;;6.00;3.53;;;4.10;88.40;;;;;;4995750;28;20202;-86
2021/03/16 17:23:12;;;;;;;10.33;4.40;;;4.00;88.40;;;;;;5021477;28;20302;-88
2021/03/16 17:25:39;;;;;;;7.37;3.70;;;3.90;88.30;;;;;;5013548;28;20297;-86
2021/03/16 17:28:07;;;;;;;8.83;4.40;;;3.80;89.10;;;;;;5028028;28;20215;-86
2021/03/16 17:30:33;;;;;;;7.63;4.13;;;3.80;88.70;;;;;;5021938;28;20206;-85
2021/03/16 17:33:00;;;;;;;7.13;4.63;;;3.80;90.00;;;;;;5020815;28;20222;-85
2021/03/16 17:35:27;;;;;;;7.80;4.60;;;3.90;90.10;;;;;;5027923;28;20198;-86
2021/03/16 17:37:54;;;;;;;10.37;4.83;;;3.90;90.20;;;;;;5023295;28;20230;-85
2021/03/16 17:40:21;;;;;;;8.67;4.53;;;3.80;90.10;;;;;;5013252;28;20668;-83
2021/03/16 17:42:47;;;;;;;10.73;4.10;;;3.70;90.40;;;;;;5026979;28;20782;-86
2021/03/16 17:45:14;;;;;;;6.47;4.50;;;3.60;90.60;;;;;;5031640;28;20206;-85
2021/03/16 17:47:40;;;;;;;7.07;4.47;;;3.50;91.20;;;;;;5028704;28;20231;-83
2021/03/16 17:50:09;;;;;;;7.50;3.67;;;3.50;91.50;;;;;;5027263;28;20203;-88
2021/03/16 17:52:36;;;;;;;8.40;3.90;;;3.60;91.20;;;;;;5025827;28;20249;-83
2021/03/16 17:55:04;;;;;;;7.57;4.40;;;3.70;90.40;;;;;;5024643;28;20203;-84
2021/03/16 17:57:30;;;;;;;9.97;3.70;;;3.80;90.40;;;;;;5025499;28;20265;-83
2021/03/16 17:59:57;;;;;;;6.57;3.80;;;3.90;90.40;;;;;;5024478;28;20234;-86
2021/03/16 18:02:23;;;;;;;7.23;4.30;;;3.90;90.10;;;;;;5019406;28;20242;-87
2021/03/16 18:04:50;;;;;;;9.77;4.43;;;3.90;90.50;;;;;;5008624;28;20211;-86
2021/03/16 18:07:17;;;;;;;7.73;4.07;;;4.00;90.50;;;;;;5006798;28;20230;-87
2021/03/16 18:09:49;;;;;;;7.60;4.10;;;4.00;89.90;;;;;;4998174;28;20209;-84
2021/03/16 18:12:18;;;;;;;6.47;3.80;;;4.00;89.80;;;;;;5036104;28;20229;-84
2021/03/16 18:14:47;;;;;;;7.17;4.07;;;3.90;88.30;;;;;;5027729;28;20201;-88
2021/03/16 18:17:16;;;;;;;9.17;4.57;;;3.80;90.00;;;;;;5022557;28;20284;-88
2021/03/16 18:19:43;;;;;;;6.03;4.20;;;3.80;90.30;;;;;;5025581;28;20264;-86
2021/03/16 18:22:09;;;;;;;8.80;4.80;;;3.70;91.20;;;;;;5031570;28;20615;-89
2021/03/16 18:24:36;;;;;;;9.57;5.07;;;3.60;91.70;;;;;;5021767;28;20604;-88
2021/03/16 18:27:05;;;;;;;8.13;5.00;;;3.50;92.40;;;;;;5001595;28;20293;-86
2021/03/16 18:29:32;;;;;;;10.60;5.30;;;3.40;92.60;;;;;;5015953;28;20255;-90
2021/03/16 18:32:00;;;;;;;10.57;5.33;;;3.40;93.10;;;;;;5020921;28;20207;-90
2021/03/16 18:34:26;;;;;;;8.07;4.80;;;3.40;93.30;;;;;;5019275;28;20207;-89
2021/03/16 18:36:53;;;;;;;8.97;4.83;;;3.40;93.20;;;;;;5024869;28;20575;-89
2021/03/16 18:39:19;;;;;;;8.87;5.00;;;3.50;92.80;;;;;;5025944;28;20218;-89
2021/03/16 18:41:46;;;;;;;10.03;5.10;;;3.50;93.00;;;;;;5020589;28;20206;-88
2021/03/16 18:44:12;;;;;;;9.37;5.40;;;3.40;93.20;;;;;;5016865;28;20233;-86
2021/03/16 18:46:41;;;;;;;9.13;5.10;;;3.40;93.10;;;;;;5018402;28;20237;-86
2021/03/16 18:49:09;;;;;;;8.07;4.80;;;3.40;93.00;;;;;;5021384;28;20720;-88
2021/03/16 18:51:35;;;;;;;8.33;4.60;;;3.30;93.10;;;;;;5019987;28;20222;-88
2021/03/16 18:54:02;;;;;;;11.17;4.77;;;3.30;93.00;;;;;;5022438;28;20225;-88
2021/03/16 18:56:28;;;;;;;9.20;4.90;;;3.20;93.10;;;;;;5022208;28;20221;-89
2021/03/16 18:58:55;;;;;;;8.70;5.20;;;3.20;93.30;;;;;;5018624;28;20229;-87
2021/03/16 19:01:21;;;;;;;7.70;4.77;;;3.10;93.50;;;;;;5024792;28;20202;-90
2021/03/16 19:03:49;;;;;;;10.03;5.00;;;3.20;93.40;;;;;;5016123;28;20275;-88
2021/03/16 19:06:16;;;;;;;9.87;4.80;;;3.20;93.40;;;;;;4991854;28;20213;-87
2021/03/16 19:08:47;;;;;;;8.17;5.10;;;3.30;93.40;;;;;;5032607;28;20326;-89
2021/03/16 19:11:17;;;;;;;7.80;4.60;;;3.30;93.10;;;;;;5032390;28;20309;-87
2021/03/16 19:13:45;;;;;;;8.17;4.70;;;3.20;93.20;;;;;;5021162;28;20728;-86
2021/03/16 19:16:16;;;;;;;6.00;4.20;;;3.20;92.90;;;;;;5024220;28;20613;-86
2021/03/16 19:18:45;;;;;;;8.77;4.80;;;3.20;92.80;;;;;;5023249;28;20219;-87
2021/03/16 19:21:15;;;;;;;9.37;4.97;;;3.10;92.80;;;;;;5028630;28;20241;-86
2021/03/16 19:23:45;;;;;;;6.53;4.27;;;3.10;92.70;;;;;;5012412;28;20234;-87
2021/03/16 19:26:15;;;;;;;5.50;4.27;;;3.10;93.00;;;;;;5025169;28;20222;-86
2021/03/16 19:28:45;;;;;;;8.17;4.70;;;3.10;92.80;;;;;;5025559;28;20254;-87
2021/03/16 19:31:16;;;;;;;8.00;4.57;;;3.10;92.80;;;;;;5025505;28;20574;-89
2021/03/16 19:33:47;;;;;;;5.97;4.37;;;3.10;93.00;;;;;;5021374;28;20223;-85
2021/03/16 19:36:25;;;;;;;6.27;4.33;;;3.10;92.80;;;;;;5029647;28;20226;-87
2021/03/16 19:38:53;;;;;;;7.90;4.50;;;3.00;92.70;;;;;;5012176;28;20218;-86
2021/03/16 19:41:19;;;;;;;7.63;4.10;;;2.90;93.10;;;;;;5027283;28;20226;-86
2021/03/16 19:43:46;;;;;;;9.87;4.40;;;2.90;93.30;;;;;;5022162;28;20581;-86
2021/03/16 19:46:12;;;;;;;8.07;3.80;;;2.90;93.20;;;;;;5018728;28;20565;-84
2021/03/16 19:48:40;;;;;;;6.57;4.00;;;2.90;93.20;;;;;;5022249;28;20771;-86
2021/03/16 19:51:12;;;;;;;7.17;4.13;;;3.00;92.90;;;;;;5026612;28;20251;-88
2021/03/16 19:53:41;;;;;;;6.07;3.80;;;3.00;92.90;;;;;;5016013;28;20223;-87
2021/03/16 19:56:07;;;;;;;5.87;3.90;;;3.10;93.10;;;;;;5023788;28;20641;-88
2021/03/16 19:58:34;;;;;;;7.73;4.27;;;3.10;93.00;;;;;;5027337;28;20226;-89
2021/03/16 20:01:02;;;;;;;5.90;4.07;;;3.10;93.10;;;;;;5026073;28;20294;-88
2021/03/16 20:03:28;;;;;;;6.47;3.87;;;3.10;93.10;;;;;;5024119;28;20230;-88
2021/03/16 20:05:55;;;;;;;6.53;3.73;;;3.10;92.80;;;;;;5016138;28;20646;-87
2021/03/16 20:08:21;;;;;;;7.60;4.10;;;3.10;92.80;;;;;;5034032;28;20225;-88
2021/03/16 20:10:49;;;;;;;6.90;3.80;;;3.10;93.10;;;;;;5022803;28;20198;-88
2021/03/16 20:13:17;;;;;;;10.03;4.10;;;3.00;93.20;;;;;;5021726;28;20234;-89
2021/03/16 20:15:44;;;;;;;8.03;3.67;;;3.10;93.50;;;;;;5022043;28;20199;-91
2021/03/16 20:18:10;;;;;;;5.33;3.30;;;3.20;93.00;;;;;;5007792;28;20253;-89
2021/03/16 20:20:37;;;;;;;6.60;3.37;;;3.20;93.00;;;;;;5010366;28;20201;-90
2021/03/16 20:23:05;;;;;;;7.73;3.60;;;3.20;93.10;;;;;;5017021;28;20228;-87
2021/03/16 20:25:31;;;;;;;6.33;3.50;;;3.20;93.30;;;;;;5017950;28;20202;-88
2021/03/16 20:28:00;;;;;;;6.13;3.70;;;3.20;93.30;;;;;;5023565;28;20226;-89
2021/03/16 20:30:27;;;;;;;7.17;4.23;;;3.10;93.70;;;;;;5024217;28;20683;-88
2021/03/16 20:32:53;;;;;;;5.77;4.20;;;3.10;94.10;;;;;;5018613;28;20289;-91
2021/03/16 20:35:20;;;;;;;6.83;4.10;;;3.00;94.70;;;;;;5015768;28;20699;-89
2021/03/16 20:37:46;;;;;;;7.53;4.13;;;3.00;94.60;;;;;;5017027;28;20279;-86
2021/03/16 20:40:14;;;;;;;7.33;4.47;;;2.90;94.60;;;;;;5028197;28;20569;-87
2021/03/16 20:42:41;;;;;;;9.23;4.33;;;2.90;94.90;;;;;;5019539;28;20250;-87
2021/03/16 20:45:11;;;;;;;8.40;4.70;;;2.90;95.10;;;;;;5021507;28;20601;-87
2021/03/16 20:47:42;;;;;;;5.97;4.20;;;2.90;95.40;;;;;;5024738;28;20230;-88
2021/03/16 20:50:12;;;;;;;8.83;4.33;;;2.90;95.40;;;;;;5022231;28;20663;-89
2021/03/16 20:52:38;;;;;;;5.27;3.83;;;3.00;95.40;;;;;;5022368;28;20243;-88
2021/03/16 20:55:07;;;;;;;8.03;4.40;;;2.90;95.30;;;;;;5024906;28;20438;-86
2021/03/16 20:57:33;;;;;;;5.77;4.00;;;2.90;95.30;;;;;;5025460;28;20237;-87
2021/03/16 21:00:00;;;;;;;8.43;4.10;;;2.80;95.70;;;;;;5029085;28;20253;-89
2021/03/16 21:02:29;;;;;;;6.47;4.23;;;2.80;96.10;;;;;;5023803;28;20232;-88
2021/03/16 21:04:56;;;;;;;7.30;4.23;;;2.80;96.00;;;;;;5022648;28;20775;-88
2021/03/16 21:07:22;;;;;;;7.53;4.40;;;2.80;96.00;;;;;;5022085;28;20723;-86
2021/03/16 21:09:49;;;;;;;5.13;4.03;;;2.80;96.20;;;;;;5025139;28;20195;-86